createdAt,value
2023-10-06T00:02:30.065Z,2.13
2023-10-06T00:05:02.248Z,0.63
2023-10-06T00:07:32.514Z,0.98
2023-10-06T00:10:00.962Z,4.57
2023-10-06T00:12:32.732Z,1.60
2023-10-06T00:15:08.457Z,0.85
2023-10-06T00:17:37.186Z,1.08
2023-10-06T00:20:22.798Z,0.55
2023-10-06T00:22:51.519Z,1.60
2023-10-06T00:25:29.088Z,3.80
2023-10-06T00:27:57.542Z,0.80
2023-10-06T00:30:26.674Z,0.60
2023-10-06T00:32:56.216Z,0.75
2023-10-06T00:35:32.245Z,0.82
2023-10-06T00:38:13.886Z,0.73
2023-10-06T00:40:46.305Z,0.73
2023-10-06T00:43:18.031Z,4.85
2023-10-06T00:45:49.357Z,1.48
2023-10-06T00:48:18.083Z,2.30
2023-10-06T00:50:49.882Z,2.25
2023-10-06T00:53:21.799Z,1.08
2023-10-06T00:55:51.112Z,1.10
2023-10-06T00:58:20.528Z,1.02
2023-10-06T01:00:48.948Z,1.27
2023-10-06T01:03:17.244Z,6.15
2023-10-06T01:05:47.815Z,0.93
2023-10-06T01:08:18.202Z,0.65
2023-10-06T01:10:52.543Z,1.15
2023-10-06T01:13:21.907Z,1.98
2023-10-06T01:15:50.822Z,0.95
2023-10-06T01:18:24.659Z,3.15
2023-10-06T01:20:55.105Z,1.33
2023-10-06T01:23:28.968Z,2.42
2023-10-06T01:26:01.163Z,0.65
2023-10-06T01:28:29.582Z,3.60
2023-10-06T01:30:59.068Z,2.25
2023-10-06T01:33:27.689Z,1.20
2023-10-06T01:35:56.389Z,1.00
2023-10-06T01:38:26.073Z,0.70
2023-10-06T01:40:55.499Z,1.00
2023-10-06T01:43:31.284Z,1.77
2023-10-06T01:46:00.848Z,1.05
2023-10-06T01:48:31.334Z,2.10
2023-10-06T01:51:00.097Z,2.20
2023-10-06T01:53:34.627Z,1.23
2023-10-06T01:56:08.054Z,1.25
2023-10-06T01:58:38.050Z,1.60
2023-10-06T02:01:08.392Z,1.80
2023-10-06T02:03:41.674Z,0.80
2023-10-06T02:06:16.767Z,1.25
2023-10-06T02:08:51.656Z,1.23
2023-10-06T02:11:22.181Z,1.23
2023-10-06T02:13:50.522Z,2.65
2023-10-06T02:16:24.410Z,0.93
2023-10-06T02:18:55.134Z,1.00
2023-10-06T02:21:26.223Z,1.33
2023-10-06T02:24:04.830Z,1.48
2023-10-06T02:26:36.993Z,1.08
2023-10-06T02:29:09.100Z,0.60
2023-10-06T02:31:37.819Z,0.85
2023-10-06T02:34:13.640Z,1.73
2023-10-06T02:36:43.166Z,0.90
2023-10-06T02:39:17.139Z,3.78
2023-10-06T02:41:47.649Z,0.63
2023-10-06T02:44:16.883Z,0.70
2023-10-06T02:46:46.886Z,2.03
2023-10-06T02:49:15.558Z,0.90
2023-10-06T02:51:49.724Z,1.40
2023-10-06T02:54:29.060Z,1.38
2023-10-06T02:56:57.720Z,0.68
2023-10-06T02:59:26.662Z,0.82
2023-10-06T03:01:57.893Z,2.22
2023-10-06T03:04:30.003Z,1.08
2023-10-06T03:07:01.096Z,1.60
2023-10-06T03:09:38.277Z,1.27
2023-10-06T03:12:13.572Z,2.60
2023-10-06T03:14:42.886Z,1.25
2023-10-06T03:17:14.648Z,0.88
2023-10-06T03:19:45.184Z,1.17
2023-10-06T03:22:15.339Z,0.98
2023-10-06T03:24:59.083Z,3.72
2023-10-06T03:27:29.317Z,0.63
2023-10-06T03:30:09.120Z,5.50
2023-10-06T03:32:40.807Z,1.98
2023-10-06T03:35:22.667Z,1.48
2023-10-06T03:37:55.353Z,2.25
2023-10-06T03:40:36.750Z,0.98
2023-10-06T03:43:07.961Z,2.50
2023-10-06T03:45:36.383Z,1.30
2023-10-06T03:48:12.787Z,0.98
2023-10-06T03:50:44.719Z,4.00
2023-10-06T03:53:16.141Z,1.15
2023-10-06T03:55:47.692Z,0.93
2023-10-06T03:58:18.072Z,1.45
2023-10-06T04:00:49.840Z,3.42
2023-10-06T04:03:20.005Z,2.10
2023-10-06T04:05:50.187Z,1.75
2023-10-06T04:08:22.129Z,3.72
2023-10-06T04:10:56.175Z,1.60
2023-10-06T04:13:24.774Z,3.00
2023-10-06T04:15:53.950Z,4.30
2023-10-06T04:18:24.979Z,1.73
2023-10-06T04:20:54.617Z,3.20
2023-10-06T04:23:25.198Z,0.88
2023-10-06T04:25:57.783Z,0.57
2023-10-06T04:28:29.568Z,4.72
2023-10-06T04:31:02.493Z,2.35
2023-10-06T04:33:31.141Z,1.92
2023-10-06T04:36:01.544Z,1.25
2023-10-06T04:38:30.829Z,1.45
2023-10-06T04:41:01.024Z,2.00
2023-10-06T04:43:29.282Z,1.63
2023-10-06T04:45:57.601Z,1.85
2023-10-06T04:48:26.292Z,1.88
2023-10-06T04:50:57.145Z,2.60
2023-10-06T04:53:25.589Z,1.00
2023-10-06T04:55:53.916Z,2.40
2023-10-06T04:58:24.379Z,4.25
2023-10-06T05:00:54.961Z,1.38
2023-10-06T05:03:23.401Z,1.13
2023-10-06T05:05:52.153Z,4.97
2023-10-06T05:08:21.390Z,1.85
2023-10-06T05:10:50.921Z,1.90
2023-10-06T05:13:19.267Z,1.65
2023-10-06T05:15:48.794Z,1.83
2023-10-06T05:18:18.053Z,2.78
2023-10-06T05:20:47.666Z,0.88
2023-10-06T05:23:16.848Z,1.52
2023-10-06T05:25:46.418Z,2.30
2023-10-06T05:28:18.300Z,4.25
2023-10-06T05:30:49.127Z,2.00
2023-10-06T05:33:17.556Z,1.95
2023-10-06T05:35:47.565Z,1.73
2023-10-06T05:38:15.972Z,3.10
2023-10-06T05:40:45.499Z,1.38
2023-10-06T05:43:14.099Z,1.38
2023-10-06T05:45:43.566Z,1.38
2023-10-06T05:48:14.268Z,6.68
2023-10-06T05:50:42.821Z,3.60
2023-10-06T05:53:14.066Z,2.72
2023-10-06T05:55:43.648Z,5.60
2023-10-06T05:58:15.800Z,4.15
2023-10-06T06:00:53.879Z,2.95
2023-10-06T06:03:25.148Z,1.65
2023-10-06T06:05:59.123Z,4.13
2023-10-06T06:08:31.431Z,4.05
2023-10-06T06:11:01.157Z,3.22
2023-10-06T06:13:29.385Z,3.55
2023-10-06T06:15:57.946Z,2.47
2023-10-06T06:18:28.874Z,2.53
2023-10-06T06:20:57.195Z,2.47
2023-10-06T06:23:26.991Z,1.80
2023-10-06T06:25:55.780Z,1.02
2023-10-06T06:28:23.974Z,2.58
2023-10-06T06:30:52.204Z,1.58
2023-10-06T06:33:23.578Z,1.67
2023-10-06T06:35:53.641Z,2.25
2023-10-06T06:38:26.152Z,1.95
2023-10-06T06:40:55.052Z,2.92
2023-10-06T06:43:23.316Z,3.60
2023-10-06T06:45:51.540Z,2.42
2023-10-06T06:48:21.489Z,0.98
2023-10-06T06:50:51.280Z,4.28
2023-10-06T06:53:21.111Z,2.53
2023-10-06T06:55:49.699Z,1.83
2023-10-06T06:58:18.560Z,1.42
2023-10-06T07:00:49.220Z,2.03
2023-10-06T07:03:17.846Z,2.75
2023-10-06T07:05:46.186Z,2.67
2023-10-06T07:08:16.935Z,3.60
2023-10-06T07:10:53.648Z,3.85
2023-10-06T07:13:23.803Z,6.70
2023-10-06T07:15:52.324Z,4.47
2023-10-06T07:18:20.909Z,3.40
2023-10-06T07:20:50.498Z,4.72
2023-10-06T07:23:19.418Z,4.63
2023-10-06T07:25:49.106Z,3.83
2023-10-06T07:28:19.022Z,2.40
2023-10-06T07:30:47.616Z,6.00
2023-10-06T07:33:15.987Z,4.28
2023-10-06T07:35:44.953Z,5.10
2023-10-06T07:38:15.424Z,2.65
2023-10-06T07:40:44.471Z,2.30
2023-10-06T07:43:17.008Z,3.80
2023-10-06T07:45:45.497Z,4.25
2023-10-06T07:48:13.846Z,4.78
2023-10-06T07:50:42.179Z,2.03
2023-10-06T07:53:10.950Z,2.78
2023-10-06T07:55:41.740Z,3.28
2023-10-06T07:58:10.027Z,2.22
2023-10-06T08:00:43.315Z,1.98
2023-10-06T08:03:12.469Z,1.50
2023-10-06T08:05:41.759Z,3.00
2023-10-06T08:08:10.429Z,4.20
2023-10-06T08:10:39.284Z,1.77
2023-10-06T08:13:09.145Z,1.08
2023-10-06T08:15:41.989Z,4.45
2023-10-06T08:18:10.462Z,5.05
2023-10-06T08:20:41.402Z,2.20
2023-10-06T08:23:13.083Z,3.40
2023-10-06T08:28:14.232Z,6.43
2023-10-06T08:30:44.762Z,2.35
2023-10-06T08:33:14.964Z,3.85
2023-10-06T08:35:45.448Z,4.78
2023-10-06T08:38:15.861Z,2.72
2023-10-06T08:40:44.428Z,2.53
2023-10-06T08:43:16.886Z,3.08
2023-10-06T08:45:46.786Z,3.97
2023-10-06T08:48:17.418Z,2.40
2023-10-06T08:50:47.167Z,2.15
2023-10-06T08:53:16.489Z,4.15
2023-10-06T08:55:45.744Z,3.63
2023-10-06T08:58:15.157Z,4.88
2023-10-06T09:00:44.912Z,1.75
2023-10-06T09:03:16.300Z,1.52
2023-10-06T09:05:46.521Z,1.98
2023-10-06T09:08:16.525Z,1.70
2023-10-06T09:10:52.647Z,4.32
2023-10-06T09:13:23.365Z,2.90
2023-10-06T09:16:00.918Z,5.60
2023-10-06T09:18:33.156Z,2.70
2023-10-06T09:21:13.447Z,2.40
2023-10-06T09:23:42.377Z,1.98
2023-10-06T09:26:13.809Z,3.65
2023-10-06T09:28:53.715Z,3.38
2023-10-06T09:31:37.075Z,4.57
2023-10-06T09:34:10.813Z,3.25
2023-10-06T09:36:45.845Z,2.60
2023-10-06T09:39:27.396Z,2.63
2023-10-06T09:41:56.756Z,3.17
2023-10-06T09:44:27.238Z,2.03
2023-10-06T09:47:02.481Z,3.53
2023-10-06T09:49:34.872Z,3.50
2023-10-06T09:52:04.776Z,6.03
2023-10-06T09:54:35.136Z,2.97
2023-10-06T09:57:05.290Z,4.32
2023-10-06T09:59:35.201Z,2.78
2023-10-06T10:02:06.537Z,2.55
2023-10-06T10:04:36.954Z,4.53
2023-10-06T10:07:09.248Z,3.00
2023-10-06T10:09:44.887Z,1.63
2023-10-06T10:12:36.010Z,5.38
2023-10-06T10:15:20.736Z,3.38
2023-10-06T10:17:56.799Z,2.25
2023-10-06T10:20:28.008Z,2.15
2023-10-06T10:22:58.222Z,3.13
2023-10-06T10:25:32.365Z,3.70
2023-10-06T10:28:14.524Z,1.50
2023-10-06T10:30:56.861Z,1.45
2023-10-06T10:33:26.718Z,2.13
2023-10-06T10:36:22.948Z,1.73
2023-10-06T10:39:10.571Z,1.65
2023-10-06T10:41:41.765Z,1.27
2023-10-06T10:44:25.448Z,1.45
2023-10-06T10:46:57.390Z,2.33
2023-10-06T10:49:31.845Z,3.42
2023-10-06T10:52:03.629Z,1.83
2023-10-06T10:54:35.071Z,2.13
2023-10-06T10:57:10.664Z,1.13
2023-10-06T11:00:16.353Z,6.15
2023-10-06T11:03:05.889Z,3.13
2023-10-06T11:05:35.343Z,1.58
2023-10-06T11:08:06.731Z,5.03
2023-10-06T11:10:35.481Z,1.90
2023-10-06T11:13:19.865Z,3.47
2023-10-06T11:15:50.699Z,1.70
2023-10-06T11:18:21.797Z,1.83
2023-10-06T11:20:51.226Z,2.97
2023-10-06T11:23:21.167Z,2.35
2023-10-06T11:25:51.617Z,1.83
2023-10-06T11:28:21.168Z,2.25
2023-10-06T11:30:50.756Z,3.03
2023-10-06T11:33:22.099Z,1.70
2023-10-06T11:35:50.780Z,2.92
2023-10-06T11:38:21.247Z,0.70
2023-10-06T11:40:54.284Z,3.30
2023-10-06T11:43:23.359Z,2.70
2023-10-06T11:46:02.966Z,2.40
2023-10-06T11:48:35.152Z,1.40
2023-10-06T11:51:07.587Z,1.73
2023-10-06T11:56:09.081Z,1.60
2023-10-06T11:58:38.863Z,4.53
2023-10-06T12:01:07.921Z,0.88
2023-10-06T12:03:43.331Z,1.20
2023-10-06T12:06:14.534Z,1.58
2023-10-06T12:08:45.704Z,1.50
2023-10-06T12:11:16.021Z,2.05
2023-10-06T12:13:46.633Z,9.65
2023-10-06T12:16:17.407Z,2.58
2023-10-06T12:18:47.513Z,1.00
2023-10-06T12:21:16.501Z,4.03
2023-10-06T12:23:46.877Z,2.25
2023-10-06T12:26:15.594Z,0.70
2023-10-06T12:28:45.284Z,3.97
2023-10-06T12:31:13.771Z,4.65
2023-10-06T12:33:42.302Z,0.70
2023-10-06T12:36:13.610Z,1.45
2023-10-06T12:38:42.349Z,2.80
2023-10-06T12:41:13.595Z,2.95
2023-10-06T12:43:41.971Z,5.13
2023-10-06T12:46:10.861Z,1.45
2023-10-06T12:48:39.633Z,1.52
2023-10-06T12:51:12.714Z,1.98
2023-10-06T12:53:44.074Z,0.85
2023-10-06T12:56:14.143Z,1.65
2023-10-06T12:58:42.373Z,2.00
2023-10-06T13:01:11.606Z,2.90
2023-10-06T13:03:41.566Z,1.88
2023-10-06T13:06:14.304Z,2.17
2023-10-06T13:08:43.486Z,1.15
2023-10-06T13:11:13.176Z,2.35
2023-10-06T13:13:41.591Z,1.83
2023-10-06T13:16:11.108Z,1.23
2023-10-06T13:18:39.542Z,3.00
2023-10-06T13:21:10.017Z,1.83
2023-10-06T13:23:39.574Z,1.20
2023-10-06T13:26:10.512Z,2.42
2023-10-06T13:28:43.353Z,3.25
2023-10-06T13:31:13.228Z,1.15
2023-10-06T13:33:41.803Z,1.00
2023-10-06T13:36:10.489Z,1.33
2023-10-06T13:38:41.134Z,1.13
2023-10-06T13:41:10.100Z,1.60
2023-10-06T13:43:38.382Z,1.23
2023-10-06T13:46:08.391Z,2.67
2023-10-06T13:48:36.867Z,3.63
2023-10-06T13:51:05.121Z,3.45
2023-10-06T13:53:33.434Z,2.28
2023-10-06T13:56:01.726Z,3.13
2023-10-06T13:58:31.143Z,5.38
2023-10-06T14:00:59.897Z,2.70
2023-10-06T14:03:32.931Z,1.05
2023-10-06T14:06:05.522Z,1.10
2023-10-06T14:08:35.040Z,2.45
2023-10-06T14:11:06.125Z,2.40
2023-10-06T14:13:36.589Z,1.17
2023-10-06T14:16:10.883Z,2.33
2023-10-06T14:18:41.614Z,2.67
2023-10-06T14:21:12.816Z,2.00
2023-10-06T14:26:35.423Z,2.33
2023-10-06T14:29:07.192Z,1.50
2023-10-06T14:31:38.764Z,1.08
2023-10-06T14:34:35.279Z,1.27
2023-10-06T14:37:12.706Z,1.05
2023-10-06T14:39:59.001Z,2.47
2023-10-06T14:42:44.979Z,1.60
2023-10-06T14:45:31.312Z,2.67
2023-10-06T14:48:02.111Z,1.05
2023-10-06T14:50:36.103Z,5.35
2023-10-06T14:53:04.881Z,2.63
2023-10-06T14:55:39.687Z,1.67
2023-10-06T14:58:09.795Z,1.50
2023-10-06T15:00:38.988Z,1.75
2023-10-06T15:03:13.341Z,4.75
2023-10-06T15:05:44.735Z,0.65
2023-10-06T15:08:14.459Z,0.88
2023-10-06T15:10:43.260Z,0.82
2023-10-06T15:13:14.194Z,1.58
2023-10-06T15:15:45.502Z,1.58
2023-10-06T15:18:17.306Z,2.17
2023-10-06T15:20:49.002Z,0.75
2023-10-06T15:23:19.166Z,1.90
2023-10-06T15:25:57.368Z,0.65
2023-10-06T15:28:38.130Z,1.20
2023-10-06T15:31:08.174Z,0.75
2023-10-06T15:33:37.055Z,1.40
2023-10-06T15:36:07.706Z,1.15
2023-10-06T15:38:37.212Z,1.45
2023-10-06T15:41:11.793Z,3.25
2023-10-06T15:43:41.577Z,5.90
2023-10-06T15:46:11.739Z,2.38
2023-10-06T15:48:42.104Z,1.40
2023-10-06T15:51:14.947Z,1.50
2023-10-06T15:53:45.805Z,2.90
2023-10-06T15:56:17.544Z,0.93
2023-10-06T15:58:48.206Z,2.30
2023-10-06T16:01:19.604Z,2.58
2023-10-06T16:03:49.106Z,1.42
2023-10-06T16:06:21.461Z,1.45
2023-10-06T16:08:50.951Z,1.30
2023-10-06T16:11:19.884Z,2.30
2023-10-06T16:13:48.292Z,3.10
2023-10-06T16:16:19.079Z,5.03
2023-10-06T16:18:51.570Z,4.70
2023-10-06T16:21:21.524Z,2.53
2023-10-06T16:23:53.199Z,3.67
2023-10-06T16:26:24.552Z,4.25
2023-10-06T16:28:52.817Z,2.30
2023-10-06T16:31:21.223Z,3.17
2023-10-06T16:33:49.522Z,2.88
2023-10-06T16:36:22.984Z,4.20
2023-10-06T16:38:52.549Z,2.38
2023-10-06T16:41:22.806Z,2.45
2023-10-06T16:43:52.720Z,1.65
2023-10-06T16:46:21.764Z,3.53
2023-10-06T16:48:50.278Z,4.43
2023-10-06T16:51:21.094Z,2.00
2023-10-06T16:53:50.267Z,2.92
2023-10-06T16:56:24.247Z,2.45
2023-10-06T16:58:52.734Z,1.98
2023-10-06T17:01:22.496Z,3.20
2023-10-06T17:03:50.832Z,2.60
2023-10-06T17:06:22.129Z,1.95
2023-10-06T17:08:50.793Z,2.20
2023-10-06T17:11:20.696Z,3.92
2023-10-06T17:13:50.520Z,2.20
2023-10-06T17:16:19.066Z,9.63
2023-10-06T17:18:47.470Z,3.28
2023-10-06T17:21:16.812Z,2.08
2023-10-06T17:23:46.772Z,4.15
2023-10-06T17:26:15.488Z,5.90
2023-10-06T17:28:44.641Z,3.33
2023-10-06T17:31:16.902Z,8.75
2023-10-06T17:33:46.700Z,5.18
2023-10-06T17:36:15.159Z,3.05
2023-10-06T17:38:44.195Z,4.35
2023-10-06T17:41:17.522Z,4.22
2023-10-06T17:43:47.992Z,5.45
2023-10-06T17:46:18.251Z,4.05
2023-10-06T17:48:48.346Z,5.03
2023-10-06T17:51:20.521Z,8.32
2023-10-06T17:53:50.364Z,4.50
2023-10-06T17:56:22.950Z,4.10
2023-10-06T17:58:53.615Z,4.57
2023-10-06T18:01:23.815Z,5.60
2023-10-06T18:03:52.607Z,5.47
2023-10-06T18:06:22.308Z,6.13
2023-10-06T18:08:50.978Z,4.90
2023-10-06T18:11:21.410Z,5.57
2023-10-06T18:13:50.863Z,4.97
2023-10-06T18:16:19.824Z,5.47
2023-10-06T18:18:48.643Z,5.55
2023-10-06T18:21:18.781Z,8.45
2023-10-06T18:23:48.152Z,6.38
2023-10-06T18:26:20.322Z,5.40
2023-10-06T18:28:50.531Z,7.95
2023-10-06T18:31:19.962Z,7.20
2023-10-06T18:33:50.190Z,8.18
2023-10-06T18:36:18.974Z,5.93
2023-10-06T18:38:49.716Z,6.45
2023-10-06T18:41:18.816Z,7.10
2023-10-06T18:43:47.721Z,6.70
2023-10-06T18:46:20.191Z,7.57
2023-10-06T18:48:49.555Z,6.07
2023-10-06T18:51:18.078Z,7.70
2023-10-06T18:53:46.705Z,6.78
2023-10-06T18:56:15.781Z,6.85
2023-10-06T18:58:47.522Z,4.38
2023-10-06T19:01:17.609Z,5.95
2023-10-06T19:03:46.295Z,9.55
2023-10-06T19:06:18.822Z,4.63
2023-10-06T19:08:51.390Z,4.45
2023-10-06T19:11:21.515Z,7.25
2023-10-06T19:13:50.942Z,6.93
2023-10-06T19:16:21.834Z,7.15
2023-10-06T19:18:51.713Z,8.77
2023-10-06T19:21:24.878Z,6.82
2023-10-06T19:23:53.369Z,11.95
2023-10-06T19:26:23.211Z,5.88
2023-10-06T19:28:51.655Z,6.93
2023-10-06T19:31:21.870Z,8.73
2023-10-06T19:33:51.982Z,4.45
2023-10-06T19:36:21.880Z,5.28
2023-10-06T19:38:51.905Z,5.53
2023-10-06T19:41:22.925Z,8.68
2023-10-06T19:43:51.670Z,5.35
2023-10-06T19:46:22.586Z,5.90
2023-10-06T19:48:55.012Z,5.95
2023-10-06T19:51:24.329Z,13.43
2023-10-06T19:53:53.441Z,8.40
2023-10-06T19:56:25.487Z,5.50
2023-10-06T19:58:56.366Z,8.25
2023-10-06T20:01:26.446Z,7.97
2023-10-06T20:03:54.985Z,5.78
2023-10-06T20:06:23.556Z,5.30
2023-10-06T20:08:52.057Z,7.50
2023-10-06T20:11:21.858Z,7.30
2023-10-06T20:13:50.792Z,8.23
2023-10-06T20:16:19.814Z,6.28
2023-10-06T20:18:50.421Z,7.95
2023-10-06T20:21:19.308Z,5.68
2023-10-06T20:23:52.304Z,8.50
2023-10-06T20:26:21.453Z,8.70
2023-10-06T20:28:50.231Z,6.72
2023-10-06T20:31:18.862Z,7.35
2023-10-06T20:33:49.210Z,7.22
2023-10-06T20:36:18.068Z,7.15
2023-10-06T20:38:46.536Z,5.88
2023-10-06T20:41:15.361Z,4.72
2023-10-06T20:43:43.988Z,5.90
2023-10-06T20:46:15.691Z,8.25
2023-10-06T20:48:44.206Z,6.55
2023-10-06T20:51:18.080Z,7.78
2023-10-06T20:53:46.860Z,6.88
2023-10-06T20:56:15.639Z,6.72
2023-10-06T20:58:45.398Z,5.72
2023-10-06T21:01:15.544Z,6.45
2023-10-06T21:03:44.391Z,7.03
2023-10-06T21:06:13.694Z,4.55
2023-10-06T21:08:43.553Z,5.70
2023-10-06T21:11:14.071Z,4.65
2023-10-06T21:13:43.772Z,5.10
2023-10-06T21:16:12.268Z,4.07
2023-10-06T21:18:40.902Z,5.50
2023-10-06T21:21:09.499Z,4.10
2023-10-06T21:23:38.744Z,5.80
2023-10-06T21:26:08.334Z,4.93
2023-10-06T21:28:37.574Z,6.47
2023-10-06T21:31:06.444Z,14.13
2023-10-06T21:33:34.834Z,4.88
2023-10-06T21:36:03.456Z,5.10
2023-10-06T21:38:32.919Z,4.90
2023-10-06T21:41:02.107Z,5.60
2023-10-06T21:43:31.701Z,5.72
2023-10-06T21:46:02.223Z,4.88
2023-10-06T21:48:32.890Z,9.95
2023-10-06T21:51:01.135Z,7.88
2023-10-06T21:53:29.564Z,6.70
2023-10-06T21:55:58.423Z,3.83
2023-10-06T21:58:26.836Z,4.10
2023-10-06T22:00:57.259Z,4.43
2023-10-06T22:03:26.017Z,3.42
2023-10-06T22:05:55.599Z,3.60
2023-10-06T22:08:24.294Z,2.60
2023-10-06T22:10:55.348Z,3.03
2023-10-06T22:13:23.728Z,2.00
2023-10-06T22:15:51.983Z,2.03
2023-10-06T22:18:22.789Z,4.22
2023-10-06T22:20:51.045Z,2.60
2023-10-06T22:23:22.276Z,3.55
2023-10-06T22:25:52.197Z,2.60
2023-10-06T22:28:21.783Z,2.65
2023-10-06T22:30:50.266Z,2.20
2023-10-06T22:33:18.910Z,3.72
2023-10-06T22:35:48.822Z,2.25
2023-10-06T22:38:17.087Z,2.08
2023-10-06T22:40:45.297Z,2.80
2023-10-06T22:43:13.503Z,1.20
2023-10-06T22:45:41.823Z,2.53
2023-10-06T22:48:10.758Z,2.40
2023-10-06T22:50:39.222Z,3.00
2023-10-06T22:53:09.632Z,2.92
2023-10-06T22:55:38.875Z,3.33
2023-10-06T22:58:07.177Z,2.13
2023-10-06T23:00:35.643Z,1.58
2023-10-06T23:03:04.107Z,4.60
2023-10-06T23:05:32.429Z,2.83
2023-10-06T23:08:00.638Z,3.10
2023-10-06T23:10:31.138Z,2.42
2023-10-06T23:13:01.686Z,3.47
2023-10-06T23:15:33.068Z,2.60
2023-10-06T23:18:01.958Z,3.15
2023-10-06T23:20:31.696Z,1.88
2023-10-06T23:23:00.584Z,1.95
2023-10-06T23:25:38.093Z,2.67
2023-10-06T23:28:08.408Z,5.65
2023-10-06T23:30:38.149Z,1.50
2023-10-06T23:33:07.573Z,1.75
2023-10-06T23:35:36.421Z,2.38
2023-10-06T23:38:07.999Z,4.38
2023-10-06T23:40:39.764Z,2.47
2023-10-06T23:43:09.814Z,2.47
2023-10-06T23:45:39.771Z,7.28
2023-10-06T23:48:12.645Z,1.88
2023-10-06T23:50:52.734Z,2.00
2023-10-06T23:55:54.460Z,2.17
2023-10-06T23:58:23.795Z,3.58
